Time;durP1;ratioP1;P1;durP2;ratioP2;P2;SDS_P1;SDS_P2;PMS_P1;PMS_P2;Temp;Humidity;BMP_temperature;BMP_pressure;BME280_temperature;BME280_humidity;BME280_pressure;Samples;Min_cycle;Max_cycle;Signal;HPM_P1;HPM_P2
2023/09/11 04:06:32;;;;;;;0.50;0.50;;;17.60;99.90;;;;;;5125015;23;20483;-67
2023/09/11 04:08:57;;;;;;;0.40;0.40;;;17.50;99.90;;;;;;4975816;28;20417;-67
2023/09/11 04:11:23;;;;;;;0.30;0.27;;;17.50;99.90;;;;;;4975695;28;20638;-67
2023/09/11 04:13:49;;;;;;;0.30;0.27;;;17.50;99.90;;;;;;4975823;28;20169;-67
2023/09/11 04:16:15;;;;;;;0.30;0.30;;;17.40;99.90;;;;;;4975080;28;20189;-66
2023/09/11 04:18:44;;;;;;;0.30;0.20;;;17.30;99.90;;;;;;4975851;28;20764;-66
2023/09/11 04:21:10;;;;;;;0.30;0.27;;;17.40;99.90;;;;;;4975852;28;20546;-65
2023/09/11 04:23:36;;;;;;;0.30;0.30;;;17.40;99.90;;;;;;4974267;28;20416;-65
2023/09/11 04:26:02;;;;;;;0.30;0.20;;;17.50;99.90;;;;;;4975460;28;20670;-65
2023/09/11 04:28:27;;;;;;;0.90;0.90;;;17.60;99.90;;;;;;4974549;28;20180;-68
2023/09/11 04:30:53;;;;;;;0.30;0.30;;;17.70;99.90;;;;;;4973413;28;20535;-67
2023/09/11 04:33:19;;;;;;;0.30;0.30;;;17.80;99.90;;;;;;4972690;28;20225;-67
2023/09/11 04:35:44;;;;;;;0.30;0.20;;;17.80;99.90;;;;;;4972234;28;20237;-68
2023/09/11 04:38:10;;;;;;;0.30;0.30;;;17.90;99.90;;;;;;4973539;28;20912;-65
2023/09/11 04:40:36;;;;;;;0.40;0.37;;;17.80;99.90;;;;;;4973590;28;20181;-67
2023/09/11 04:43:02;;;;;;;0.30;0.20;;;17.70;99.90;;;;;;4974278;28;20439;-67
2023/09/11 04:45:28;;;;;;;0.57;0.57;;;17.70;99.90;;;;;;4975013;28;20184;-66
2023/09/11 04:47:53;;;;;;;1.63;0.60;;;17.80;99.90;;;;;;4975445;28;20957;-66
2023/09/11 04:50:19;;;;;;;0.30;0.30;;;17.80;99.90;;;;;;4975310;28;20255;-65
2023/09/11 04:52:45;;;;;;;0.30;0.30;;;17.70;99.90;;;;;;4975207;28;20203;-64
2023/09/11 04:55:10;;;;;;;0.30;0.30;;;17.60;99.90;;;;;;4974998;28;20688;-69
2023/09/11 04:57:36;;;;;;;0.30;0.20;;;17.60;99.90;;;;;;4975130;28;20171;-69
2023/09/11 05:00:09;;;;;;;0.77;0.40;;;17.50;99.90;;;;;;4975099;28;20179;-65
2023/09/11 05:02:35;;;;;;;0.30;0.30;;;17.30;99.90;;;;;;4975052;28;20494;-65
2023/09/11 05:05:03;;;;;;;0.30;0.30;;;17.20;99.90;;;;;;4974498;28;20526;-69
2023/09/11 05:07:29;;;;;;;0.30;0.20;;;17.20;99.90;;;;;;4974736;28;20432;-65
2023/09/11 05:09:55;;;;;;;1.80;0.93;;;17.10;99.90;;;;;;4974894;28;20461;-66
2023/09/11 05:12:20;;;;;;;0.30;0.20;;;17.00;99.90;;;;;;4974687;28;20910;-66
2023/09/11 05:14:46;;;;;;;0.30;0.20;;;17.00;99.90;;;;;;4974369;28;20201;-66
2023/09/11 05:17:11;;;;;;;0.70;0.70;;;17.00;99.90;;;;;;4974890;28;20206;-68
2023/09/11 05:19:37;;;;;;;0.87;0.60;;;17.00;99.90;;;;;;4974840;28;20174;-65
2023/09/11 05:22:03;;;;;;;0.30;0.30;;;16.90;99.90;;;;;;4974670;28;20208;-65
2023/09/11 05:24:28;;;;;;;0.30;0.20;;;17.00;99.90;;;;;;4974331;28;20170;-67
2023/09/11 05:26:54;;;;;;;0.30;0.30;;;17.00;99.90;;;;;;4974662;28;20177;-63
2023/09/11 05:29:19;;;;;;;0.30;0.30;;;17.00;99.90;;;;;;4974806;28;20174;-65
2023/09/11 05:31:45;;;;;;;0.30;0.20;;;17.00;99.90;;;;;;4974684;28;20201;-65
2023/09/11 05:34:11;;;;;;;0.30;0.20;;;17.10;99.90;;;;;;4974194;28;20180;-65
2023/09/11 05:36:36;;;;;;;0.47;0.47;;;17.20;99.90;;;;;;4974330;28;20204;-63
2023/09/11 05:39:02;;;;;;;0.30;0.30;;;17.20;99.90;;;;;;4974480;28;20174;-65
2023/09/11 05:41:28;;;;;;;0.30;0.30;;;17.30;99.90;;;;;;4957100;28;20187;-63
2023/09/11 05:43:54;;;;;;;0.30;0.30;;;17.30;99.90;;;;;;4973721;28;20799;-66
2023/09/11 05:46:19;;;;;;;0.50;0.50;;;17.40;99.90;;;;;;4974296;28;20545;-66
2023/09/11 05:48:45;;;;;;;0.30;0.30;;;17.60;99.90;;;;;;4969677;28;20180;-63
2023/09/11 05:51:11;;;;;;;0.47;0.40;;;17.80;99.90;;;;;;4958532;28;20215;-65
2023/09/11 05:53:36;;;;;;;0.50;0.40;;;17.80;99.90;;;;;;4937603;29;20183;-65
2023/09/11 05:56:02;;;;;;;0.30;0.30;;;17.90;99.90;;;;;;4955346;29;20185;-65
2023/09/11 05:58:28;;;;;;;0.63;0.63;;;18.00;99.90;;;;;;4955245;28;20169;-66
2023/09/11 06:00:53;;;;;;;0.30;0.30;;;18.10;99.90;;;;;;4955464;29;20177;-64
2023/09/11 06:03:19;;;;;;;0.40;0.37;;;18.30;99.90;;;;;;4955376;28;20173;-64
2023/09/11 06:05:45;;;;;;;0.40;0.40;;;18.60;99.90;;;;;;4954420;28;20204;-61
2023/09/11 06:08:11;;;;;;;0.30;0.30;;;18.90;99.90;;;;;;4955357;29;20267;-64
2023/09/11 06:10:37;;;;;;;0.30;0.30;;;19.20;99.90;;;;;;4960519;28;20335;-65
2023/09/11 06:13:02;;;;;;;0.30;0.20;;;19.50;99.90;;;;;;4993883;28;20381;-65
2023/09/11 06:15:29;;;;;;;0.30;0.20;;;19.70;99.90;;;;;;4967117;28;20224;-69
2023/09/11 06:17:55;;;;;;;0.30;0.20;;;19.80;99.90;;;;;;4972517;28;20301;-69
2023/09/11 06:20:21;;;;;;;0.40;0.40;;;19.90;99.90;;;;;;4974109;28;20386;-63
2023/09/11 06:22:47;;;;;;;0.30;0.20;;;20.10;99.90;;;;;;4955967;28;21065;-64
2023/09/11 06:25:13;;;;;;;0.30;0.30;;;20.10;99.90;;;;;;4971880;28;20466;-63
2023/09/11 06:27:38;;;;;;;0.30;0.20;;;20.00;99.90;;;;;;4974286;28;20412;-64
2023/09/11 06:30:08;;;;;;;0.40;0.40;;;20.10;99.90;;;;;;4972654;28;20199;-65
2023/09/11 06:32:33;;;;;;;1.63;1.07;;;20.20;99.90;;;;;;4970045;28;20171;-63
2023/09/11 06:35:01;;;;;;;0.40;0.40;;;20.40;99.90;;;;;;4973350;28;20432;-64
2023/09/11 06:37:26;;;;;;;0.53;0.53;;;20.40;99.90;;;;;;4972233;28;20180;-64
2023/09/11 06:39:52;;;;;;;0.30;0.20;;;20.40;99.90;;;;;;4968665;28;20902;-64
2023/09/11 06:42:22;;;;;;;0.53;0.53;;;20.40;99.90;;;;;;4974303;28;20180;-65
2023/09/11 06:44:48;;;;;;;0.50;0.30;;;20.30;99.90;;;;;;4961784;28;20275;-64
2023/09/11 06:47:13;;;;;;;0.30;0.30;;;20.30;99.90;;;;;;4970705;28;20783;-65
2023/09/11 06:49:39;;;;;;;0.40;0.40;;;20.20;99.90;;;;;;4958924;28;20418;-64
2023/09/11 06:52:05;;;;;;;1.87;0.60;;;20.30;99.90;;;;;;4954699;29;20189;-65
2023/09/11 06:54:30;;;;;;;0.50;0.37;;;20.40;99.90;;;;;;4954240;29;20173;-66
2023/09/11 06:56:56;;;;;;;0.30;0.20;;;20.60;99.90;;;;;;4956179;28;20178;-66
2023/09/11 06:59:21;;;;;;;0.37;0.37;;;20.80;99.90;;;;;;4958292;29;20173;-64
2023/09/11 07:01:47;;;;;;;1.87;1.80;;;21.00;99.90;;;;;;4958037;29;20187;-65
2023/09/11 07:04:13;;;;;;;0.30;0.30;;;21.20;99.90;;;;;;4975359;28;20255;-65
2023/09/11 07:06:39;;;;;;;0.47;0.47;;;21.30;99.90;;;;;;4977055;28;20235;-65
2023/09/11 07:09:06;;;;;;;1.27;1.20;;;21.50;99.90;;;;;;4977198;28;20222;-66
2023/09/11 07:11:31;;;;;;;0.40;0.40;;;21.70;99.90;;;;;;4981457;28;20473;-63
2023/09/11 07:13:57;;;;;;;0.40;0.40;;;21.90;99.90;;;;;;4977117;28;20440;-63
2023/09/11 07:16:23;;;;;;;0.50;0.40;;;22.10;99.90;;;;;;4977121;28;20685;-65
2023/09/11 07:18:49;;;;;;;0.30;0.20;;;22.20;99.90;;;;;;4975940;28;20440;-65
2023/09/11 07:21:14;;;;;;;0.40;0.40;;;22.50;99.90;;;;;;4977306;28;20234;-64
2023/09/11 07:23:40;;;;;;;0.50;0.50;;;22.80;99.90;;;;;;4976327;28;20654;-64
2023/09/11 07:26:05;;;;;;;0.50;0.50;;;23.00;99.90;;;;;;4980272;28;20207;-65
2023/09/11 07:28:33;;;;;;;1.50;0.53;;;23.20;99.90;;;;;;4977095;28;20204;-63
2023/09/11 07:30:58;;;;;;;0.80;0.80;;;23.20;99.90;;;;;;4976903;28;20658;-66
2023/09/11 07:33:24;;;;;;;0.50;0.50;;;23.20;99.90;;;;;;4976077;28;20424;-64
2023/09/11 07:35:50;;;;;;;0.40;0.40;;;23.40;99.90;;;;;;4976561;28;20195;-63
2023/09/11 07:38:16;;;;;;;0.30;0.30;;;23.40;99.90;;;;;;4976866;28;20311;-64
2023/09/11 07:40:42;;;;;;;0.30;0.30;;;23.40;99.90;;;;;;4976152;28;20259;-64
2023/09/11 07:43:08;;;;;;;0.30;0.30;;;23.50;99.90;;;;;;4976297;28;20179;-64
2023/09/11 07:45:34;;;;;;;0.50;0.40;;;23.60;99.90;;;;;;4976154;28;20402;-63
2023/09/11 07:48:00;;;;;;;0.40;0.40;;;23.80;99.90;;;;;;4976502;28;20173;-67
2023/09/11 07:50:25;;;;;;;0.40;0.30;;;24.20;99.90;;;;;;4963785;28;20442;-65
2023/09/11 07:52:52;;;;;;;0.40;0.40;;;24.80;99.90;;;;;;4966791;28;20171;-65
2023/09/11 07:55:17;;;;;;;0.33;0.33;;;25.70;99.90;;;;;;4972665;28;20204;-67
2023/09/11 07:57:43;;;;;;;0.77;0.60;;;26.80;99.90;;;;;;4960643;28;20425;-65
2023/09/11 08:00:09;;;;;;;1.33;0.57;;;28.20;99.90;;;;;;4976560;28;20200;-64
2023/09/11 08:02:36;;;;;;;0.60;0.53;;;29.60;99.10;;;;;;4976295;28;20187;-62
2023/09/11 08:05:02;;;;;;;1.33;1.13;;;30.70;97.70;;;;;;4975911;28;20519;-64
2023/09/11 08:07:28;;;;;;;0.93;0.60;;;31.90;94.70;;;;;;4975164;28;20530;-66
2023/09/11 08:09:54;;;;;;;0.80;0.80;;;33.00;92.40;;;;;;4976189;28;20554;-65
2023/09/11 08:12:20;;;;;;;0.90;0.90;;;33.70;90.80;;;;;;4968991;28;20224;-63
2023/09/11 08:14:45;;;;;;;0.70;0.70;;;34.50;87.50;;;;;;4940300;28;20437;-66
2023/09/11 08:17:12;;;;;;;0.77;0.77;;;35.00;85.00;;;;;;4976127;28;20396;-62
2023/09/11 08:19:38;;;;;;;0.87;0.83;;;35.30;84.20;;;;;;4976380;28;20246;-65
2023/09/11 08:22:03;;;;;;;0.73;0.73;;;35.80;82.00;;;;;;4976035;28;20464;-65
2023/09/11 08:24:29;;;;;;;0.83;0.83;;;36.30;80.40;;;;;;4975674;28;20165;-65
2023/09/11 08:26:55;;;;;;;0.67;0.60;;;36.70;79.90;;;;;;4958039;28;20176;-66
2023/09/11 08:29:21;;;;;;;0.87;0.87;;;37.10;77.90;;;;;;4958513;28;20254;-64
2023/09/11 08:31:47;;;;;;;1.03;1.03;;;37.30;77.00;;;;;;4976549;28;20526;-65
2023/09/11 08:34:13;;;;;;;1.23;1.23;;;37.60;75.40;;;;;;4975423;28;20188;-65
2023/09/11 08:36:38;;;;;;;0.60;0.60;;;38.20;71.60;;;;;;4975569;28;20440;-64
2023/09/11 08:39:04;;;;;;;0.70;0.70;;;38.50;71.80;;;;;;4975734;28;20530;-62
2023/09/11 08:41:31;;;;;;;0.67;0.67;;;38.80;70.00;;;;;;4973534;28;20252;-65
2023/09/11 08:43:57;;;;;;;0.70;0.70;;;38.80;68.60;;;;;;4959321;28;20674;-66
2023/09/11 08:46:23;;;;;;;1.23;1.20;;;38.70;68.70;;;;;;4956168;29;20428;-66
2023/09/11 08:48:57;;;;;;;0.80;0.80;;;38.60;68.20;;;;;;4969851;28;20180;-67
2023/09/11 08:51:29;;;;;;;0.80;0.80;;;38.40;68.70;;;;;;4975581;28;20854;-69
2023/09/11 08:53:56;;;;;;;0.93;0.93;;;38.60;67.50;;;;;;4975257;28;20403;-68
2023/09/11 08:56:22;;;;;;;0.90;0.90;;;38.50;69.50;;;;;;4974406;28;20498;-67
2023/09/11 08:58:51;;;;;;;0.87;0.87;;;38.80;69.40;;;;;;4962977;28;20485;-66
2023/09/11 09:01:19;;;;;;;1.37;1.17;;;39.30;68.00;;;;;;4982803;28;20494;-66
2023/09/11 09:03:46;;;;;;;0.80;0.80;;;39.60;65.90;;;;;;4975395;28;20514;-68
2023/09/11 09:06:12;;;;;;;1.53;1.43;;;40.00;64.20;;;;;;4957926;28;20801;-63
2023/09/11 09:08:39;;;;;;;1.53;1.43;;;40.60;62.10;;;;;;4975330;28;20395;-66
2023/09/11 09:11:05;;;;;;;1.53;1.43;;;40.90;62.90;;;;;;4974257;28;20459;-66
2023/09/11 09:13:36;;;;;;;1.87;1.77;;;40.80;60.80;;;;;;4975044;28;20447;-67
2023/09/11 09:16:02;;;;;;;1.17;1.17;;;40.70;61.10;;;;;;4974760;28;20275;-66
2023/09/11 09:18:28;;;;;;;1.10;1.10;;;40.90;61.30;;;;;;4974429;28;20422;-64
2023/09/11 09:20:55;;;;;;;1.40;1.30;;;41.60;59.60;;;;;;4974209;28;20463;-65
2023/09/11 09:23:39;;;;;;;1.60;1.53;;;42.10;58.60;;;;;;4973942;28;20415;-63
2023/09/11 09:26:06;;;;;;;1.53;1.43;;;42.00;58.60;;;;;;4974805;28;20437;-63
2023/09/11 09:28:33;;;;;;;1.60;1.53;;;41.80;57.90;;;;;;4974072;28;20431;-68
2023/09/11 09:30:59;;;;;;;1.57;1.57;;;41.80;58.60;;;;;;4971661;28;20422;-66
2023/09/11 09:33:25;;;;;;;1.60;1.60;;;41.80;57.70;;;;;;4963718;28;20516;-63
2023/09/11 09:35:51;;;;;;;1.60;1.60;;;41.90;58.30;;;;;;4955048;29;20431;-63
2023/09/11 09:38:20;;;;;;;1.90;1.83;;;42.00;56.40;;;;;;4972466;28;20187;-66
2023/09/11 09:40:46;;;;;;;1.40;1.40;;;42.00;56.80;;;;;;4974690;28;20215;-63
2023/09/11 09:43:16;;;;;;;2.03;1.93;;;41.90;56.60;;;;;;4974561;28;20414;-68
2023/09/11 09:45:42;;;;;;;1.80;1.80;;;41.80;55.80;;;;;;4974334;28;20247;-67
2023/09/11 09:48:16;;;;;;;2.00;1.90;;;41.50;56.30;;;;;;4974921;28;20420;-63
2023/09/11 09:50:50;;;;;;;1.47;1.47;;;41.50;56.40;;;;;;4974869;28;20498;-62
2023/09/11 09:53:33;;;;;;;1.70;1.60;;;40.90;56.20;;;;;;4955683;28;20459;-67
2023/09/11 09:56:04;;;;;;;1.33;1.33;;;40.50;57.70;;;;;;4955394;29;20514;-63
2023/09/11 09:58:33;;;;;;;1.40;1.40;;;40.30;57.80;;;;;;4959204;28;20415;-65
2023/09/11 10:01:03;;;;;;;1.73;1.67;;;40.40;57.90;;;;;;4974910;28;20459;-65
2023/09/11 10:03:58;;;;;;;1.00;1.00;;;40.70;57.30;;;;;;4973862;28;20786;-68
2023/09/11 10:06:27;;;;;;;1.70;1.60;;;40.90;57.50;;;;;;4973372;28;20469;-63
2023/09/11 10:09:13;;;;;;;1.60;1.60;;;40.50;57.00;;;;;;4974333;28;20407;-65
2023/09/11 10:11:41;;;;;;;2.63;1.33;;;40.40;56.30;;;;;;4955294;29;20520;-65
2023/09/11 10:14:10;;;;;;;1.00;1.00;;;40.40;56.90;;;;;;4954614;28;20475;-68
2023/09/11 10:16:36;;;;;;;1.10;1.10;;;40.20;56.40;;;;;;4937990;28;20432;-60
2023/09/11 10:19:03;;;;;;;1.37;1.37;;;40.20;56.10;;;;;;4955431;28;20428;-67
2023/09/11 10:21:30;;;;;;;1.30;1.20;;;39.90;55.50;;;;;;4962801;28;20215;-65
2023/09/11 10:23:56;;;;;;;1.47;1.37;;;39.80;55.40;;;;;;4973522;28;20412;-69
2023/09/11 10:26:40;;;;;;;1.40;1.30;;;40.00;56.10;;;;;;4972322;28;20968;-64
2023/09/11 10:29:10;;;;;;;1.73;1.63;;;40.10;55.30;;;;;;4954737;29;20500;-63
2023/09/11 10:31:42;;;;;;;1.30;1.27;;;40.10;55.70;;;;;;4957351;28;20499;-61
2023/09/11 10:34:11;;;;;;;1.20;1.20;;;39.60;54.90;;;;;;4958398;28;20451;-61
2023/09/11 10:36:49;;;;;;;0.77;0.77;;;39.30;57.10;;;;;;4958549;28;20436;-63
2023/09/11 10:39:17;;;;;;;1.20;1.20;;;39.10;56.60;;;;;;4958741;29;20435;-63
2023/09/11 10:41:42;;;;;;;1.23;1.13;;;39.00;55.40;;;;;;4959245;28;20550;-62
2023/09/11 10:44:08;;;;;;;1.43;1.37;;;39.00;56.60;;;;;;4958318;28;20932;-61
2023/09/11 10:46:39;;;;;;;1.00;1.00;;;39.20;55.80;;;;;;4966573;28;20200;-62
2023/09/11 10:49:36;;;;;;;0.90;0.90;;;39.00;54.60;;;;;;4959156;28;20263;-62
2023/09/11 10:52:05;;;;;;;0.80;0.80;;;38.80;54.70;;;;;;4976481;28;20434;-62
2023/09/11 10:54:31;;;;;;;1.17;1.10;;;38.20;54.30;;;;;;4977245;28;20823;-62
2023/09/11 10:56:57;;;;;;;0.70;0.70;;;38.00;54.90;;;;;;4977570;28;20508;-63
2023/09/11 10:59:26;;;;;;;1.07;1.03;;;37.90;53.90;;;;;;4977138;28;20185;-62
2023/09/11 11:01:52;;;;;;;0.70;0.70;;;37.90;53.50;;;;;;4976621;28;20294;-60
2023/09/11 11:04:18;;;;;;;1.17;0.80;;;37.60;55.20;;;;;;4976978;28;20886;-59
2023/09/11 11:06:49;;;;;;;0.87;0.87;;;37.30;56.80;;;;;;4977123;28;20541;-60
2023/09/11 11:09:31;;;;;;;1.27;1.23;;;37.00;58.30;;;;;;4977480;28;20180;-61
2023/09/11 11:12:13;;;;;;;1.30;1.23;;;36.40;57.90;;;;;;4977483;28;20418;-61
2023/09/11 11:14:38;;;;;;;0.40;0.40;;;35.70;58.90;;;;;;4976783;28;20417;-59
2023/09/11 11:17:08;;;;;;;0.50;0.47;;;35.00;62.90;;;;;;4976336;28;20406;-61
2023/09/11 11:19:59;;;;;;;3.80;0.90;;;34.30;62.80;;;;;;4957903;29;20185;-60
2023/09/11 11:22:30;;;;;;;0.50;0.50;;;33.50;65.00;;;;;;4957855;29;20442;-58
2023/09/11 11:24:55;;;;;;;0.60;0.60;;;33.00;66.20;;;;;;4957928;28;20494;-61
2023/09/11 11:27:21;;;;;;;0.80;0.80;;;32.70;68.70;;;;;;4991468;28;20783;-59
2023/09/11 11:29:47;;;;;;;0.57;0.57;;;32.40;70.50;;;;;;4995718;28;20172;-61
2023/09/11 11:32:14;;;;;;;1.00;1.00;;;32.10;70.70;;;;;;4959605;28;20323;-60
2023/09/11 11:34:43;;;;;;;0.53;0.53;;;31.90;71.50;;;;;;4976413;28;20426;-62
2023/09/11 11:37:11;;;;;;;0.90;0.70;;;31.60;69.80;;;;;;4976994;28;20412;-62
2023/09/11 11:39:37;;;;;;;0.50;0.50;;;31.40;68.10;;;;;;4976915;28;20415;-60
2023/09/11 11:42:04;;;;;;;0.67;0.67;;;31.30;69.00;;;;;;4970186;28;20427;-64
2023/09/11 11:44:33;;;;;;;0.60;0.60;;;31.20;69.60;;;;;;4968814;28;20510;-61
2023/09/11 11:46:59;;;;;;;0.67;0.50;;;31.10;69.80;;;;;;4976684;28;20397;-61
2023/09/11 11:49:25;;;;;;;0.37;0.37;;;31.00;69.40;;;;;;4976577;28;20447;-60
2023/09/11 11:51:50;;;;;;;0.70;0.67;;;30.80;70.50;;;;;;4976586;28;20390;-63
2023/09/11 11:54:27;;;;;;;0.37;0.37;;;30.70;72.10;;;;;;4958524;28;20211;-60
2023/09/11 11:56:56;;;;;;;0.60;0.60;;;30.60;72.10;;;;;;4975799;28;20519;-59
2023/09/11 11:59:22;;;;;;;0.60;0.60;;;30.70;74.00;;;;;;4976341;28;20405;-63
2023/09/11 12:01:48;;;;;;;2.27;0.77;;;30.70;75.10;;;;;;4976359;28;20522;-60
2023/09/11 12:04:13;;;;;;;0.70;0.70;;;30.70;71.90;;;;;;4976152;28;20390;-58
2023/09/11 12:06:39;;;;;;;0.50;0.30;;;30.70;73.00;;;;;;4975891;28;20244;-61
2023/09/11 12:09:05;;;;;;;0.40;0.30;;;30.60;73.20;;;;;;4965579;28;20181;-63
2023/09/11 12:11:33;;;;;;;0.30;0.30;;;30.50;74.50;;;;;;4961873;28;20220;-64
2023/09/11 12:13:59;;;;;;;0.60;0.60;;;30.50;75.10;;;;;;4956632;29;20607;-63
2023/09/11 12:16:31;;;;;;;0.80;0.60;;;30.60;75.20;;;;;;4956716;29;20412;-60
2023/09/11 12:18:57;;;;;;;0.40;0.30;;;30.50;74.40;;;;;;4957096;29;20584;-60
2023/09/11 12:21:22;;;;;;;0.40;0.40;;;30.50;74.50;;;;;;4956649;29;20464;-65
2023/09/11 12:23:48;;;;;;;1.17;0.80;;;30.40;74.10;;;;;;4956484;29;20177;-62
2023/09/11 12:26:14;;;;;;;1.00;0.63;;;30.30;75.50;;;;;;4956540;29;20659;-62
2023/09/11 12:28:40;;;;;;;0.43;0.43;;;30.30;78.20;;;;;;4956701;29;20215;-64
2023/09/11 12:31:06;;;;;;;0.30;0.30;;;30.30;76.70;;;;;;4956484;29;20594;-59
2023/09/11 12:33:34;;;;;;;0.50;0.50;;;30.40;77.40;;;;;;4956304;29;20408;-60
2023/09/11 12:36:00;;;;;;;0.40;0.30;;;30.50;76.90;;;;;;4956639;29;20476;-60
2023/09/11 12:38:26;;;;;;;1.40;0.90;;;30.50;76.50;;;;;;4955878;28;20439;-60
2023/09/11 12:40:52;;;;;;;0.50;0.50;;;30.60;76.10;;;;;;4974776;28;20955;-58
2023/09/11 12:43:20;;;;;;;0.40;0.30;;;30.60;75.20;;;;;;4970807;28;20865;-61
2023/09/11 12:45:46;;;;;;;0.40;0.40;;;30.60;74.90;;;;;;4974651;28;20827;-59
2023/09/11 12:48:12;;;;;;;0.90;0.65;;;30.50;73.90;;;;;;4974558;28;20400;-59
2023/09/11 12:50:39;;;;;;;1.23;0.97;;;30.50;75.30;;;;;;4975512;28;20196;-60
2023/09/11 12:53:05;;;;;;;0.80;0.80;;;30.40;76.40;;;;;;4975674;28;20412;-61
2023/09/11 12:55:31;;;;;;;0.40;0.40;;;30.40;76.40;;;;;;4974244;28;20402;-61
2023/09/11 12:57:59;;;;;;;1.13;0.50;;;30.40;75.00;;;;;;4968202;28;20478;-63
2023/09/11 13:00:32;;;;;;;0.87;0.60;;;30.40;74.80;;;;;;4973930;28;20208;-64
2023/09/11 13:02:59;;;;;;;1.43;1.33;;;30.40;74.90;;;;;;4974438;28;20759;-63
2023/09/11 13:05:25;;;;;;;0.30;0.30;;;30.40;73.90;;;;;;4974391;28;20502;-59
2023/09/11 13:07:51;;;;;;;0.30;0.30;;;30.40;73.40;;;;;;4974744;28;20441;-60
2023/09/11 13:10:17;;;;;;;0.40;0.40;;;30.40;74.10;;;;;;4975048;28;20453;-64
2023/09/11 13:12:44;;;;;;;0.63;0.50;;;30.30;74.10;;;;;;4965418;28;20432;-60
2023/09/11 13:15:09;;;;;;;0.60;0.37;;;30.20;75.00;;;;;;4954983;29;20235;-65
2023/09/11 13:17:36;;;;;;;0.30;0.30;;;30.20;76.10;;;;;;4955965;29;20428;-60
2023/09/11 13:20:03;;;;;;;0.40;0.40;;;30.10;75.20;;;;;;4955901;28;20562;-59
2023/09/11 13:22:29;;;;;;;0.40;0.40;;;30.10;75.50;;;;;;4938621;29;20416;-60
2023/09/11 13:24:55;;;;;;;0.40;0.40;;;30.10;74.90;;;;;;4955303;29;20403;-60
2023/09/11 13:27:21;;;;;;;1.43;0.60;;;30.00;74.80;;;;;;4955603;28;20208;-63
2023/09/11 13:29:46;;;;;;;0.30;0.30;;;30.00;75.10;;;;;;4955862;28;20184;-59
2023/09/11 13:32:12;;;;;;;0.43;0.37;;;30.00;74.30;;;;;;4938394;29;20420;-63
2023/09/11 13:34:38;;;;;;;0.70;0.70;;;29.90;74.30;;;;;;4955108;28;20193;-60
2023/09/11 13:37:03;;;;;;;0.53;0.30;;;29.90;74.60;;;;;;4955738;29;20281;-63
2023/09/11 13:39:29;;;;;;;0.70;0.40;;;30.00;74.90;;;;;;4938420;29;20669;-63
2023/09/11 13:41:55;;;;;;;0.57;0.57;;;30.00;75.20;;;;;;4961889;28;20459;-63
2023/09/11 13:44:20;;;;;;;0.40;0.40;;;29.90;76.80;;;;;;4956997;28;20176;-63
2023/09/11 13:46:46;;;;;;;0.77;0.77;;;29.90;77.00;;;;;;4972459;28;20164;-60
2023/09/11 13:49:11;;;;;;;0.67;0.67;;;29.90;75.80;;;;;;4955344;29;20234;-60
2023/09/11 13:51:37;;;;;;;0.40;0.40;;;29.90;76.20;;;;;;4955290;28;20177;-59
2023/09/11 13:54:03;;;;;;;0.53;0.43;;;30.00;76.30;;;;;;4955113;28;20208;-63
2023/09/11 13:56:28;;;;;;;0.30;0.30;;;29.90;76.40;;;;;;4955047;28;20200;-63
2023/09/11 13:58:54;;;;;;;0.60;0.60;;;29.90;75.80;;;;;;4955472;29;20180;-60
2023/09/11 14:01:19;;;;;;;0.30;0.30;;;29.90;75.60;;;;;;4972613;28;20208;-61
2023/09/11 14:03:45;;;;;;;0.63;0.47;;;29.80;76.00;;;;;;4974182;28;20169;-63
2023/09/11 14:06:10;;;;;;;0.40;0.40;;;29.80;75.70;;;;;;4975322;28;20199;-61
2023/09/11 14:08:36;;;;;;;0.50;0.50;;;29.80;75.40;;;;;;4972693;28;20176;-61
2023/09/11 14:11:02;;;;;;;0.30;0.30;;;29.80;75.90;;;;;;4974865;28;20187;-62
2023/09/11 14:13:28;;;;;;;0.53;0.53;;;29.90;75.30;;;;;;4977073;28;20180;-62
2023/09/11 14:15:53;;;;;;;0.50;0.50;;;29.90;75.20;;;;;;4970826;28;20953;-61
2023/09/11 14:18:20;;;;;;;0.30;0.30;;;29.90;74.90;;;;;;4966455;28;20180;-61
2023/09/11 14:20:46;;;;;;;0.70;0.70;;;29.90;75.20;;;;;;4969989;28;20200;-61
2023/09/11 14:23:11;;;;;;;0.30;0.30;;;29.90;75.10;;;;;;4969973;28;20510;-61
2023/09/11 14:25:37;;;;;;;0.63;0.63;;;29.90;75.20;;;;;;4977319;28;20200;-61
2023/09/11 14:28:03;;;;;;;0.83;0.47;;;29.90;75.20;;;;;;4977355;28;20204;-62
2023/09/11 14:30:29;;;;;;;0.30;0.30;;;30.00;76.70;;;;;;4978069;28;20187;-63
2023/09/11 14:32:55;;;;;;;0.83;0.40;;;30.00;78.80;;;;;;4977946;28;20415;-62
2023/09/11 14:35:20;;;;;;;0.70;0.57;;;30.00;78.10;;;;;;4977844;28;20196;-61
2023/09/11 14:37:46;;;;;;;0.40;0.40;;;30.00;75.80;;;;;;4978123;28;20176;-61
2023/09/11 14:40:13;;;;;;;0.50;0.40;;;29.90;74.40;;;;;;4977807;28;20292;-63
2023/09/11 14:42:40;;;;;;;0.30;0.30;;;29.90;75.30;;;;;;4977377;28;20176;-62
2023/09/11 14:45:06;;;;;;;0.30;0.30;;;29.90;74.90;;;;;;4977186;28;20449;-61
2023/09/11 14:47:31;;;;;;;0.40;0.40;;;29.80;74.80;;;;;;4977601;28;20412;-60
2023/09/11 14:49:57;;;;;;;0.50;0.40;;;29.80;74.50;;;;;;4977615;28;20467;-63
2023/09/11 14:52:23;;;;;;;0.50;0.50;;;29.70;74.90;;;;;;4977832;28;20186;-60
2023/09/11 14:54:48;;;;;;;0.30;0.20;;;29.70;75.80;;;;;;4975455;28;20192;-62
2023/09/11 14:57:14;;;;;;;0.60;0.60;;;29.70;75.70;;;;;;4977246;28;20235;-62
2023/09/11 14:59:40;;;;;;;0.83;0.83;;;29.60;76.60;;;;;;4977827;28;20173;-62
2023/09/11 15:02:07;;;;;;;0.60;0.60;;;29.50;76.80;;;;;;4977623;28;20533;-62
2023/09/11 15:04:32;;;;;;;0.40;0.40;;;29.50;76.60;;;;;;4977224;28;20509;-62
2023/09/11 15:06:58;;;;;;;0.53;0.53;;;29.50;76.80;;;;;;4977425;28;20937;-62
2023/09/11 15:09:24;;;;;;;1.40;0.80;;;29.50;76.30;;;;;;4977257;28;20208;-62
2023/09/11 15:11:49;;;;;;;0.50;0.33;;;29.50;76.40;;;;;;4976879;28;20176;-62
2023/09/11 15:14:15;;;;;;;0.53;0.53;;;29.50;76.70;;;;;;4976876;28;20181;-67
2023/09/11 15:16:40;;;;;;;0.30;0.30;;;29.50;76.40;;;;;;4976956;28;20255;-66
2023/09/11 15:19:07;;;;;;;0.50;0.50;;;29.50;76.80;;;;;;4959803;28;20226;-66
2023/09/11 15:21:33;;;;;;;0.50;0.40;;;29.40;77.50;;;;;;4977213;28;20207;-66
2023/09/11 15:24:02;;;;;;;0.40;0.40;;;29.40;76.80;;;;;;4976917;28;20415;-68
2023/09/11 15:26:31;;;;;;;0.60;0.60;;;29.40;76.40;;;;;;4977211;28;20605;-66
2023/09/11 15:28:57;;;;;;;0.30;0.30;;;29.40;77.10;;;;;;4977160;28;20395;-65
2023/09/11 15:31:23;;;;;;;0.50;0.50;;;29.40;77.10;;;;;;4977389;28;20434;-63
2023/09/11 15:33:49;;;;;;;0.53;0.50;;;29.30;76.60;;;;;;4976658;28;20180;-64
2023/09/11 15:36:16;;;;;;;0.50;0.50;;;29.30;77.00;;;;;;4976740;28;20525;-62
2023/09/11 15:38:42;;;;;;;1.40;0.70;;;29.30;77.50;;;;;;4976736;28;20419;-64
2023/09/11 15:41:10;;;;;;;0.63;0.60;;;29.30;77.70;;;;;;4976876;28;20447;-62
2023/09/11 15:43:38;;;;;;;0.70;0.60;;;29.20;77.70;;;;;;4976438;28;20421;-63
2023/09/11 15:46:05;;;;;;;0.50;0.50;;;29.20;77.80;;;;;;4976839;28;20420;-62
2023/09/11 15:48:33;;;;;;;0.30;0.30;;;29.20;78.10;;;;;;4976750;28;20411;-63
2023/09/11 15:50:59;;;;;;;0.50;0.50;;;29.20;77.90;;;;;;4977077;28;20821;-64
2023/09/11 15:53:28;;;;;;;0.30;0.27;;;29.10;78.00;;;;;;4976372;28;20450;-63
2023/09/11 15:55:54;;;;;;;0.43;0.43;;;29.10;78.30;;;;;;4976370;28;20514;-65
2023/09/11 15:58:20;;;;;;;0.50;0.40;;;29.10;79.50;;;;;;4976340;28;20419;-62
2023/09/11 16:00:46;;;;;;;0.40;0.40;;;29.00;80.00;;;;;;4976232;28;20453;-62
2023/09/11 16:03:12;;;;;;;0.30;0.30;;;28.90;80.50;;;;;;4976331;28;20415;-63
2023/09/11 16:05:40;;;;;;;0.60;0.60;;;28.80;80.00;;;;;;4975796;28;20193;-62
2023/09/11 16:08:06;;;;;;;1.33;0.80;;;28.80;79.80;;;;;;4976336;28;20502;-62
2023/09/11 16:10:31;;;;;;;0.60;0.60;;;28.80;80.20;;;;;;4976368;28;20951;-62
2023/09/11 16:13:01;;;;;;;0.30;0.30;;;28.80;80.00;;;;;;4976383;28;20273;-63
2023/09/11 16:15:28;;;;;;;0.50;0.50;;;28.80;80.20;;;;;;4975920;28;20198;-63
2023/09/11 16:17:53;;;;;;;0.30;0.30;;;28.80;80.90;;;;;;4976240;28;20470;-64
2023/09/11 16:20:20;;;;;;;0.47;0.40;;;28.80;81.30;;;;;;4975898;28;20423;-63
2023/09/11 16:22:46;;;;;;;0.50;0.50;;;28.70;81.10;;;;;;4976055;28;20646;-62
2023/09/11 16:25:13;;;;;;;0.30;0.30;;;28.70;81.30;;;;;;4975538;28;20436;-62
2023/09/11 16:27:39;;;;;;;0.50;0.50;;;28.70;81.20;;;;;;4976121;28;20174;-63
2023/09/11 16:30:06;;;;;;;0.30;0.30;;;28.70;81.20;;;;;;4976037;28;20473;-63
2023/09/11 16:32:32;;;;;;;0.57;0.57;;;28.70;81.30;;;;;;4975836;28;20434;-64
2023/09/11 16:34:58;;;;;;;0.30;0.30;;;28.70;81.50;;;;;;4975659;28;20405;-61
2023/09/11 16:37:24;;;;;;;0.40;0.40;;;28.60;81.50;;;;;;4976000;28;20942;-61
2023/09/11 16:39:49;;;;;;;0.67;0.40;;;28.60;81.40;;;;;;4958538;28;20663;-62
2023/09/11 16:42:15;;;;;;;0.63;0.60;;;28.60;81.60;;;;;;4975594;28;20246;-62
2023/09/11 16:44:41;;;;;;;0.30;0.30;;;28.60;81.80;;;;;;4975222;28;20202;-62
2023/09/11 16:47:07;;;;;;;0.60;0.60;;;28.60;82.10;;;;;;4974977;28;20650;-64
2023/09/11 16:49:33;;;;;;;0.30;0.30;;;28.50;81.80;;;;;;4975519;28;20403;-62
2023/09/11 16:51:58;;;;;;;0.40;0.40;;;28.50;82.40;;;;;;4958165;28;20268;-63